Allenville, Missouri
Current Conditions -  °F | °C
As of 10:53 PM on Saturday 20 Dec 2014 (Local Time) from KCGI Reporting Station
Overcast Overcast  
Wind Chill:   Ceiling: 2500
Heat Index:   Visibility: 10mi
Dew Point:   Wind: 0mph
Humidity: 79%   Direction: NA
Pressure: 30.28"   Gusts: NA
Location:  37.1651°N, 89.623°W
Report Text: KCGI 210453Z AUTO 00000KT 10SM OVC025 04/01 A3028 RMK AO2 SLP254 T00440011 TSNO
Loading
Personal Weather Stations






























Interactive Weather Map New forecast layout! Learn more

10-Day Weather Forecast

Advertisements
Track Severe Weather on mobile